Terminal Aerodrome Forecast
Issued by NWS

Current Version | Previous Version | Text Only | Print | Product List | Glossary Off
Versions: 1 2 3 4 5 6 7 8 9 10 11 12 13 14 15 16 17 18 19 20 21 22 23 24 25 26

790
FTUS41 KRLX 212331
TAFCKB
TAF
KCKB 212331Z 2200/2224 28004KT P6SM SCT080
      TEMPO 2200/2201 6SM -SHRA
     FM220100 VRB03KT P6SM SCT080
     FM220800 VRB03KT 3SM BR SCT001 SCT200
     FM221200 VRB04KT P6SM SCT200
     FM221900 23006KT P6SM BKN200=

USA.gov is the U.S. government's official web portal to all federal, state and local government web resources and services.